Time;durP1;ratioP1;P1;durP2;ratioP2;P2;SDS_P1;SDS_P2;PMS_P1;PMS_P2;Temp;Humidity;BMP_temperature;BMP_pressure;BME280_temperature;BME280_humidity;BME280_pressure;Samples;Min_cycle;Max_cycle;Signal;HPM_P1;HPM_P2
2022/08/02 00:00:08;;;;;;;3.72;1.70;;;;;;;19.17;100.00;96482.41;5037931;28;20217;-76
2022/08/02 00:02:35;;;;;;;2.60;1.67;;;;;;;19.08;100.00;96494.44;5032677;28;20307;-74
2022/08/02 00:05:01;;;;;;;4.45;1.73;;;;;;;19.17;100.00;96503.78;5036886;28;20705;-74
2022/08/02 00:07:29;;;;;;;2.25;1.40;;;;;;;19.40;100.00;96498.59;5037199;28;20231;-78
2022/08/02 00:09:55;;;;;;;3.72;1.88;;;;;;;19.35;100.00;96499.28;5037581;28;20208;-76
2022/08/02 00:12:22;;;;;;;3.28;2.13;;;;;;;19.48;100.00;96498.28;5036764;28;20231;-77
2022/08/02 00:14:49;;;;;;;2.85;1.80;;;;;;;19.46;100.00;96495.00;5037322;28;20299;-78
2022/08/02 00:17:16;;;;;;;4.70;2.00;;;;;;;19.48;100.00;96488.41;5037434;28;20205;-74
2022/08/02 00:19:42;;;;;;;3.60;1.88;;;;;;;19.51;100.00;96489.81;5037065;28;20567;-77
2022/08/02 00:22:09;;;;;;;2.35;1.70;;;;;;;19.48;100.00;96482.25;5036936;28;20232;-75
2022/08/02 00:24:37;;;;;;;3.58;1.85;;;;;;;19.70;100.00;96478.84;5037026;28;20208;-75
2022/08/02 00:27:03;;;;;;;2.85;1.58;;;;;;;19.57;100.00;96482.50;5037312;28;20570;-77
2022/08/02 00:29:30;;;;;;;3.55;1.70;;;;;;;19.61;100.00;96485.56;5037164;28;20209;-80
2022/08/02 00:31:57;;;;;;;4.78;1.80;;;;;;;19.42;100.00;96480.47;5036662;28;20263;-79
2022/08/02 00:34:23;;;;;;;3.75;1.75;;;;;;;19.40;100.00;96478.03;5036598;28;20197;-79
2022/08/02 00:36:50;;;;;;;2.88;1.60;;;;;;;19.47;100.00;96486.78;5037194;28;20208;-74
2022/08/02 00:39:17;;;;;;;4.68;1.63;;;;;;;19.39;100.00;96478.25;5037447;28;20237;-75
2022/08/02 00:41:50;;;;;;;2.90;1.60;;;;;;;19.59;100.00;96479.63;5037164;28;20209;-78
2022/08/02 00:44:17;;;;;;;7.22;1.98;;;;;;;19.43;100.00;96476.75;5036409;28;20197;-75
2022/08/02 00:46:44;;;;;;;3.72;1.73;;;;;;;19.34;100.00;96473.56;5037192;28;20209;-79
2022/08/02 00:49:11;;;;;;;5.43;1.70;;;;;;;19.29;100.00;96473.44;5036851;28;20680;-79
2022/08/02 00:51:38;;;;;;;2.90;1.90;;;;;;;19.19;100.00;96467.78;5037106;28;20205;-77
2022/08/02 00:54:05;;;;;;;6.25;1.98;;;;;;;19.31;100.00;96463.34;5036553;28;20225;-79
2022/08/02 00:56:32;;;;;;;4.32;1.80;;;;;;;19.18;100.00;96468.88;5036904;28;20209;-78
2022/08/02 00:59:00;;;;;;;4.25;1.63;;;;;;;19.28;100.00;96469.13;5036853;28;20236;-76
2022/08/02 01:01:38;;;;;;;3.08;1.50;;;;;;;19.12;100.00;96474.28;5036182;28;20255;-76
2022/08/02 01:04:05;;;;;;;3.35;2.03;;;;;;;19.17;100.00;96477.06;5035844;28;20240;-75
2022/08/02 01:06:33;;;;;;;2.08;1.40;;;;;;;18.75;100.00;96477.94;5035857;28;20209;-78
2022/08/02 01:08:59;;;;;;;3.35;1.35;;;;;;;19.05;100.00;96478.84;5036888;28;20197;-75
2022/08/02 01:11:26;;;;;;;3.78;1.52;;;;;;;18.97;100.00;96481.81;5037342;28;20201;-77
2022/08/02 01:13:53;;;;;;;5.75;1.80;;;;;;;18.91;100.00;96480.03;5035678;28;20229;-78
2022/08/02 01:16:26;;;;;;;2.60;1.60;;;;;;;19.05;100.00;96473.50;5036353;28;20221;-76
2022/08/02 01:18:58;;;;;;;2.35;1.48;;;;;;;19.01;100.00;96470.44;5036423;28;20225;-79
2022/08/02 01:21:38;;;;;;;6.93;1.48;;;;;;;19.08;100.00;96467.72;5036640;28;20216;-79
2022/08/02 01:24:21;;;;;;;3.40;1.70;;;;;;;19.08;100.00;96473.91;5034900;28;20220;-75
2022/08/02 01:26:52;;;;;;;3.47;1.35;;;;;;;18.90;100.00;96480.25;5036281;28;20251;-81
2022/08/02 01:29:26;;;;;;;4.43;1.35;;;;;;;19.09;100.00;96474.72;5035859;28;20690;-78
2022/08/02 01:31:59;;;;;;;5.78;1.63;;;;;;;19.04;100.00;96477.19;5036490;28;20288;-77
2022/08/02 01:34:32;;;;;;;3.17;1.50;;;;;;;18.89;100.00;96483.94;5035812;28;20201;-75
2022/08/02 01:37:03;;;;;;;2.63;1.20;;;;;;;19.01;100.00;96485.66;5035925;28;20729;-77
2022/08/02 01:39:33;;;;;;;3.35;1.30;;;;;;;18.87;100.00;96486.84;5035975;28;20225;-76
2022/08/02 01:42:02;;;;;;;11.30;1.90;;;;;;;18.90;100.00;96490.94;5037229;28;20193;-75
2022/08/02 01:44:34;;;;;;;8.50;1.40;;;;;;;18.98;100.00;96488.81;5039277;28;20208;-78
2022/08/02 01:47:05;;;;;;;2.03;1.35;;;;;;;18.89;100.00;96490.13;5040474;28;20208;-74
2022/08/02 01:49:34;;;;;;;1.92;1.25;;;;;;;18.83;100.00;96485.66;5039749;28;20201;-76
2022/08/02 01:52:21;;;;;;;2.97;1.50;;;;;;;18.88;100.00;96493.84;5039717;28;20204;-74
2022/08/02 01:54:52;;;;;;;3.50;1.50;;;;;;;18.88;100.00;96483.16;5039888;28;20216;-79
2022/08/02 01:57:21;;;;;;;2.80;1.45;;;;;;;18.76;100.00;96474.25;5040065;28;20573;-75
2022/08/02 01:59:50;;;;;;;4.13;1.50;;;;;;;18.82;100.00;96467.19;5039897;28;20716;-75
2022/08/02 02:02:18;;;;;;;3.00;1.50;;;;;;;18.63;100.00;96479.69;5036745;28;20221;-76
2022/08/02 02:04:46;;;;;;;2.38;1.30;;;;;;;18.67;100.00;96486.25;5040447;28;20201;-78
2022/08/02 02:07:14;;;;;;;1.75;1.30;;;;;;;18.56;100.00;96483.50;5039694;28;20678;-74
2022/08/02 02:09:42;;;;;;;2.95;1.45;;;;;;;18.54;100.00;96496.22;5039638;28;20288;-74
2022/08/02 02:12:12;;;;;;;3.58;1.92;;;;;;;18.55;100.00;96488.00;5039427;28;20221;-75
2022/08/02 02:14:40;;;;;;;3.45;1.77;;;;;;;18.51;100.00;96489.47;5035385;28;20220;-74
2022/08/02 02:17:09;;;;;;;5.07;1.60;;;;;;;18.65;100.00;96487.50;5039804;28;20205;-75
2022/08/02 02:19:37;;;;;;;3.28;1.60;;;;;;;18.65;100.00;96482.19;5039846;28;20235;-75
2022/08/02 02:22:04;;;;;;;3.28;1.40;;;;;;;18.58;100.00;96482.25;5039394;28;20217;-74
2022/08/02 02:24:31;;;;;;;2.25;1.42;;;;;;;18.64;100.00;96491.22;5038312;28;20695;-77
2022/08/02 02:27:00;;;;;;;2.70;1.17;;;;;;;18.54;100.00;96489.03;5038839;28;20692;-75
2022/08/02 02:29:29;;;;;;;2.13;1.52;;;;;;;18.65;100.00;96488.31;5040360;28;20248;-78
2022/08/02 02:31:58;;;;;;;2.42;1.23;;;;;;;18.54;100.00;96489.03;5038802;28;20201;-75
2022/08/02 02:34:28;;;;;;;3.20;1.55;;;;;;;18.45;100.00;96493.00;5038421;28;20280;-78
2022/08/02 02:36:58;;;;;;;5.07;1.77;;;;;;;18.39;100.00;96490.41;5039510;28;20613;-74
2022/08/02 02:39:27;;;;;;;3.28;1.60;;;;;;;18.47;100.00;96490.16;5039274;28;20225;-77
2022/08/02 02:41:56;;;;;;;2.83;1.67;;;;;;;18.55;100.00;96477.31;5039205;28;20632;-75
2022/08/02 02:44:23;;;;;;;4.00;1.60;;;;;;;18.60;100.00;96482.81;5039096;28;20202;-76
2022/08/02 02:46:54;;;;;;;2.95;1.70;;;;;;;18.54;100.00;96486.34;5039073;28;20540;-78
2022/08/02 02:49:21;;;;;;;5.00;1.83;;;;;;;18.47;100.00;96480.28;5038927;28;20225;-74
2022/08/02 02:51:50;;;;;;;2.95;1.63;;;;;;;18.58;100.00;96481.41;5039289;28;20201;-78
2022/08/02 02:54:18;;;;;;;5.82;1.90;;;;;;;18.36;100.00;96488.19;5038281;28;20208;-78
2022/08/02 02:56:45;;;;;;;5.88;1.73;;;;;;;18.44;100.00;96485.22;5039300;28;20201;-76
2022/08/02 02:59:13;;;;;;;2.88;1.85;;;;;;;18.40;100.00;96486.72;5039247;28;20197;-74
2022/08/02 03:01:41;;;;;;;2.10;1.50;;;;;;;18.32;100.00;96480.81;5035945;28;20678;-76
2022/08/02 03:04:10;;;;;;;3.05;1.70;;;;;;;18.41;100.00;96486.47;5036920;28;20232;-79
2022/08/02 03:06:37;;;;;;;2.78;1.55;;;;;;;18.39;100.00;96483.22;5037768;28;20205;-75
2022/08/02 03:09:05;;;;;;;3.90;1.40;;;;;;;18.47;100.00;96482.16;5038518;28;20202;-75
2022/08/02 03:11:33;;;;;;;5.13;1.60;;;;;;;18.33;100.00;96487.78;5037742;28;20231;-78
2022/08/02 03:14:01;;;;;;;3.22;1.80;;;;;;;18.30;100.00;96485.56;5037403;28;20240;-75
2022/08/02 03:16:28;;;;;;;3.92;1.83;;;;;;;18.26;100.00;96487.84;5038020;28;20201;-77
2022/08/02 03:18:57;;;;;;;2.42;1.60;;;;;;;18.30;100.00;96490.91;5038425;28;20198;-76
2022/08/02 03:21:24;;;;;;;3.20;1.48;;;;;;;18.26;100.00;96492.38;5037711;28;20225;-75
2022/08/02 03:23:50;;;;;;;4.20;1.80;;;;;;;18.22;100.00;96485.84;5037243;28;20233;-75
2022/08/02 03:26:18;;;;;;;2.75;1.60;;;;;;;18.35;100.00;96486.53;5038135;28;20204;-75
2022/08/02 03:28:45;;;;;;;3.42;1.77;;;;;;;18.19;100.00;96486.28;5037939;28;20212;-75
2022/08/02 03:31:12;;;;;;;7.57;1.88;;;;;;;18.28;100.00;96484.97;5037848;28;20631;-77
2022/08/02 03:33:39;;;;;;;3.80;1.85;;;;;;;18.34;100.00;96490.25;5037472;28;20229;-76
2022/08/02 03:36:12;;;;;;;5.70;1.80;;;;;;;18.21;100.00;96492.22;5038034;28;20292;-75
2022/08/02 03:38:40;;;;;;;6.43;1.85;;;;;;;18.25;100.00;96498.75;5037841;28;20655;-78
2022/08/02 03:41:08;;;;;;;2.97;1.85;;;;;;;18.37;100.00;96501.31;5038806;28;20229;-76
2022/08/02 03:43:37;;;;;;;2.92;1.85;;;;;;;18.31;100.00;96503.22;5037151;28;20607;-77
2022/08/02 03:46:05;;;;;;;4.60;1.60;;;;;;;18.12;100.00;96502.28;5037744;28;20202;-75
2022/08/02 03:48:33;;;;;;;3.60;1.70;;;;;;;18.21;100.00;96500.22;5037562;28;20209;-75
2022/08/02 03:51:00;;;;;;;3.20;2.03;;;;;;;18.05;100.00;96492.72;5037472;28;20197;-79
2022/08/02 03:53:27;;;;;;;8.77;2.42;;;;;;;18.15;100.00;96495.72;5036956;28;21033;-77
2022/08/02 03:55:54;;;;;;;3.03;1.80;;;;;;;18.27;100.00;96489.50;5038647;28;20209;-79
2022/08/02 03:58:23;;;;;;;3.05;1.63;;;;;;;18.57;100.00;96488.59;5037783;28;20197;-77
2022/08/02 04:00:52;;;;;;;4.10;1.90;;;;;;;18.50;100.00;96487.03;5037242;28;20224;-77
2022/08/02 04:03:19;;;;;;;2.38;1.92;;;;;;;18.27;100.00;96494.84;5033326;28;20225;-79
2022/08/02 04:05:45;;;;;;;5.65;2.03;;;;;;;18.28;100.00;96506.31;5036758;28;20201;-74
2022/08/02 04:08:12;;;;;;;4.03;2.17;;;;;;;18.34;100.00;96500.91;5037266;28;20626;-76
2022/08/02 04:13:26;;;;;;;3.03;2.20;;;;;;;18.19;100.00;96515.63;5036303;28;21276;-77
2022/08/02 04:15:56;;;;;;;6.53;2.60;;;;;;;18.25;100.00;96512.09;5036745;28;20201;-76
2022/08/02 04:18:28;;;;;;;8.55;2.65;;;;;;;18.23;100.00;96511.47;5037657;28;20663;-76
2022/08/02 04:20:55;;;;;;;6.72;2.38;;;;;;;18.19;100.00;96508.44;5036942;28;20220;-76
2022/08/02 04:23:24;;;;;;;4.25;2.20;;;;;;;18.15;100.00;96511.72;5036301;28;20225;-78
2022/08/02 04:25:51;;;;;;;5.97;2.17;;;;;;;18.16;100.00;96513.34;5037003;28;20201;-77
2022/08/02 04:28:18;;;;;;;3.50;2.15;;;;;;;17.67;100.00;96512.44;5037026;28;20197;-74
2022/08/02 04:30:46;;;;;;;4.18;2.17;;;;;;;17.86;100.00;96523.81;5037035;28;20210;-74
2022/08/02 04:33:15;;;;;;;4.38;2.30;;;;;;;17.90;100.00;96521.56;5036142;28;20247;-76
2022/08/02 04:35:41;;;;;;;5.03;2.38;;;;;;;17.70;100.00;96518.19;5036908;28;20216;-74
2022/08/02 04:38:08;;;;;;;4.15;2.50;;;;;;;17.98;100.00;96522.09;5037154;28;20201;-75
2022/08/02 04:40:35;;;;;;;3.70;2.20;;;;;;;18.05;100.00;96524.72;5036902;28;20236;-76
2022/08/02 04:43:02;;;;;;;4.18;2.40;;;;;;;18.13;100.00;96519.13;5036411;28;20220;-74
2022/08/02 04:45:30;;;;;;;5.18;2.38;;;;;;;18.20;100.00;96525.25;5036836;28;20592;-77
2022/08/02 04:47:56;;;;;;;3.63;2.03;;;;;;;18.19;100.00;96519.13;5036742;28;20704;-75
2022/08/02 04:50:24;;;;;;;6.60;2.13;;;;;;;18.37;100.00;96516.50;5037312;28;20292;-76
2022/08/02 04:52:51;;;;;;;3.28;1.95;;;;;;;18.24;100.00;96515.78;5036019;28;20244;-78
2022/08/02 04:55:17;;;;;;;6.40;2.25;;;;;;;18.33;100.00;96505.44;5036859;28;20201;-78
2022/08/02 04:57:56;;;;;;;3.80;2.40;;;;;;;18.38;100.00;96513.63;5036731;28;20212;-74
2022/08/02 05:00:23;;;;;;;4.15;2.53;;;;;;;18.54;100.00;96513.06;5036773;28;20229;-77
2022/08/02 05:02:51;;;;;;;7.13;2.70;;;;;;;18.60;100.00;96517.53;5031957;28;20228;-76
2022/08/02 05:05:18;;;;;;;7.93;2.88;;;;;;;18.58;100.00;96516.09;5037250;28;20736;-76
2022/08/02 05:07:46;;;;;;;7.20;2.83;;;;;;;18.79;100.00;96516.53;5036642;28;20296;-74
2022/08/02 05:10:13;;;;;;;9.65;3.67;;;;;;;18.78;100.00;96514.88;5036245;28;20205;-74
2022/08/02 05:12:39;;;;;;;7.15;2.92;;;;;;;18.73;100.00;96512.06;5035755;28;20228;-73
2022/08/02 05:15:07;;;;;;;6.97;3.10;;;;;;;18.77;100.00;96507.09;5036725;28;20205;-77
2022/08/02 05:17:34;;;;;;;10.68;3.40;;;;;;;18.88;100.00;96517.06;5037959;28;20201;-74
2022/08/02 05:20:00;;;;;;;5.80;3.45;;;;;;;18.81;100.00;96509.09;5039874;28;20689;-74
2022/08/02 05:22:27;;;;;;;8.85;3.90;;;;;;;18.99;100.00;96506.44;5039877;28;20271;-77
2022/08/02 05:24:55;;;;;;;6.60;3.38;;;;;;;19.17;100.00;96506.47;5040071;28;20209;-76
2022/08/02 05:27:21;;;;;;;9.95;3.45;;;;;;;19.07;100.00;96508.88;5040288;28;20212;-74
2022/08/02 05:29:48;;;;;;;6.75;3.72;;;;;;;19.20;100.00;96508.72;5040198;28;20201;-73
2022/08/02 05:32:15;;;;;;;6.38;3.53;;;;;;;19.33;100.00;96508.56;5039644;28;20741;-76
2022/08/02 05:34:41;;;;;;;9.27;4.18;;;;;;;19.37;100.00;96512.41;5039394;28;20208;-74
2022/08/02 05:37:08;;;;;;;9.55;3.50;;;;;;;19.33;100.00;96513.88;5039899;28;20639;-73
2022/08/02 05:39:34;;;;;;;5.78;3.13;;;;;;;19.34;100.00;96516.34;5040057;28;20208;-75
2022/08/02 05:42:02;;;;;;;12.77;3.25;;;;;;;19.39;100.00;96513.81;5039602;28;20217;-73
2022/08/02 05:44:28;;;;;;;8.55;3.75;;;;;;;19.29;100.00;96518.06;5038901;28;20198;-76
2022/08/02 05:46:55;;;;;;;6.70;3.50;;;;;;;19.29;100.00;96518.06;5039232;28;20205;-74
2022/08/02 05:49:21;;;;;;;4.85;2.60;;;;;;;19.19;100.00;96512.41;5039816;28;20205;-76
2022/08/02 05:51:55;;;;;;;5.53;2.95;;;;;;;19.18;100.00;96516.13;5039874;28;20212;-73
2022/08/02 05:54:27;;;;;;;6.47;3.00;;;;;;;19.47;100.00;96510.03;5039431;28;20206;-73
2022/08/02 05:57:00;;;;;;;6.75;3.35;;;;;;;19.45;100.00;96512.09;5038839;28;20229;-73
2022/08/02 05:59:33;;;;;;;5.90;2.80;;;;;;;19.46;100.00;96513.72;5039710;28;20205;-73
2022/08/02 06:02:03;;;;;;;8.60;3.38;;;;;;;19.40;100.00;96517.28;5037014;28;20225;-74
2022/08/02 06:04:36;;;;;;;6.15;2.83;;;;;;;19.67;100.00;96504.19;5038692;28;20213;-76
2022/08/02 06:07:05;;;;;;;5.97;3.17;;;;;;;19.82;100.00;96509.94;5038833;28;20204;-74
2022/08/02 06:09:33;;;;;;;5.85;3.45;;;;;;;20.09;100.00;96516.56;5039594;28;20231;-76
2022/08/02 06:12:02;;;;;;;6.80;3.35;;;;;;;20.12;100.00;96520.66;5039598;28;20193;-74
2022/08/02 06:14:33;;;;;;;6.32;3.60;;;;;;;20.36;100.00;96523.94;5038236;28;20198;-73
2022/08/02 06:17:00;;;;;;;8.10;3.28;;;;;;;20.14;100.00;96524.72;5039303;28;20201;-76
2022/08/02 06:19:27;;;;;;;7.40;3.80;;;;;;;20.04;100.00;96519.13;5039889;28;20216;-73
2022/08/02 06:21:55;;;;;;;7.18;3.85;;;;;;;19.77;100.00;96517.81;5038467;28;20225;-75
2022/08/02 06:24:22;;;;;;;5.90;4.00;;;;;;;20.07;100.00;96513.28;5038360;28;20672;-73
2022/08/02 06:26:51;;;;;;;5.90;3.63;;;;;;;20.08;100.00;96514.13;5039069;28;20228;-75
2022/08/02 06:29:20;;;;;;;8.10;4.30;;;;;;;20.20;100.00;96513.13;5037953;28;20201;-75
2022/08/02 06:31:48;;;;;;;8.90;4.63;;;;;;;20.36;100.00;96502.53;5039045;28;20229;-77
2022/08/02 06:34:15;;;;;;;7.43;4.07;;;;;;;20.29;100.00;96491.13;5038373;28;20205;-74
2022/08/02 06:36:50;;;;;;;7.55;4.03;;;;;;;20.62;100.00;96504.78;5038365;28;20217;-74
2022/08/02 06:39:22;;;;;;;7.35;4.28;;;;;;;20.64;100.00;96491.16;5039211;28;20203;-76
2022/08/02 06:41:51;;;;;;;9.38;4.30;;;;;;;20.72;100.00;96499.69;5038666;28;20310;-73
2022/08/02 06:44:18;;;;;;;16.58;4.13;;;;;;;20.86;100.00;96509.94;5037972;28;20201;-76
2022/08/02 06:46:44;;;;;;;10.35;4.60;;;;;;;20.95;100.00;96502.34;5038458;28;20216;-73
2022/08/02 06:49:12;;;;;;;7.93;4.57;;;;;;;21.01;100.00;96499.53;5038705;28;20212;-76
2022/08/02 06:51:39;;;;;;;6.70;3.30;;;;;;;21.06;100.00;96496.97;5038605;28;20209;-74
2022/08/02 06:54:06;;;;;;;9.27;4.03;;;;;;;21.16;100.00;96515.97;5037773;28;20225;-74
2022/08/02 06:56:33;;;;;;;7.18;4.18;;;;;;;21.33;100.00;96513.38;5038245;28;20998;-76
2022/08/02 06:59:00;;;;;;;8.95;4.30;;;;;;;21.30;100.00;96517.34;5038510;28;20715;-74
2022/08/02 07:01:26;;;;;;;8.10;3.80;;;;;;;21.25;100.00;96511.88;5038172;28;20225;-75
2022/08/02 07:03:53;;;;;;;5.70;3.97;;;;;;;21.25;100.00;96517.22;5035258;28;21244;-76
2022/08/02 07:06:21;;;;;;;7.93;4.30;;;;;;;21.18;100.00;96521.09;5038373;28;20197;-75
2022/08/02 07:08:48;;;;;;;7.60;3.92;;;;;;;21.30;100.00;96527.25;5038069;28;20205;-73
2022/08/02 07:11:14;;;;;;;9.23;3.67;;;;;;;21.43;100.00;96525.13;5038798;28;20193;-73
2022/08/02 07:13:41;;;;;;;8.98;4.43;;;;;;;21.23;100.00;96524.72;5037397;28;20224;-76
2022/08/02 07:16:07;;;;;;;10.15;4.20;;;;;;;21.30;100.00;96530.75;5037765;28;20656;-73
2022/08/02 07:18:34;;;;;;;7.57;3.78;;;;;;;21.52;100.00;96526.41;5038172;28;20213;-74
2022/08/02 07:21:03;;;;;;;7.18;4.00;;;;;;;21.48;100.00;96535.94;5038349;28;20217;-72
2022/08/02 07:23:31;;;;;;;8.88;4.38;;;;;;;21.58;100.00;96526.28;5037120;28;20217;-72
2022/08/02 07:25:58;;;;;;;7.50;3.25;;;;;;;21.75;100.00;96520.97;5037762;28;21255;-74
2022/08/02 07:28:24;;;;;;;8.88;3.20;;;;;;;21.80;98.30;96523.75;5037628;28;20209;-75
2022/08/02 07:30:51;;;;;;;5.88;3.28;;;;;;;22.01;98.68;96517.69;5037913;28;20194;-72
2022/08/02 07:33:18;;;;;;;6.60;3.42;;;;;;;21.89;93.83;96522.31;5037041;28;20228;-72
2022/08/02 07:35:45;;;;;;;7.00;3.35;;;;;;;22.19;94.72;96519.13;5037663;28;20236;-74
2022/08/02 07:38:11;;;;;;;5.55;2.63;;;;;;;22.24;95.08;96513.84;5037676;28;20216;-75
2022/08/02 07:40:39;;;;;;;8.15;2.90;;;;;;;22.50;95.22;96510.56;5036921;28;20670;-72
2022/08/02 07:43:06;;;;;;;3.88;2.58;;;;;;;22.53;93.55;96515.47;5037029;28;20221;-72
2022/08/02 07:45:33;;;;;;;5.95;2.90;;;;;;;22.83;92.05;96513.22;5037677;28;20315;-74
2022/08/02 07:47:59;;;;;;;5.13;2.70;;;;;;;22.85;91.96;96514.63;5037342;28;20205;-73
2022/08/02 07:50:27;;;;;;;4.22;2.65;;;;;;;23.12;90.23;96512.88;5037115;28;20214;-73
2022/08/02 07:52:53;;;;;;;7.28;3.30;;;;;;;23.10;89.36;96520.38;5036872;28;20228;-73
2022/08/02 07:55:20;;;;;;;7.32;2.70;;;;;;;23.26;90.24;96508.78;5037417;28;20197;-74
2022/08/02 07:57:48;;;;;;;8.18;3.45;;;;;;;23.45;90.71;96510.91;5036971;28;20209;-74
2022/08/02 08:00:16;;;;;;;5.88;3.65;;;;;;;23.35;91.78;96507.28;5037291;28;20567;-75
2022/08/02 08:02:43;;;;;;;8.05;3.88;;;;;;;23.34;90.79;96506.50;5033942;28;20252;-73
2022/08/02 08:05:09;;;;;;;5.18;3.08;;;;;;;23.38;88.60;96515.69;5036812;28;20221;-74
2022/08/02 08:07:36;;;;;;;7.57;3.38;;;;;;;23.43;91.48;96512.22;5036954;28;20212;-75
2022/08/02 08:10:03;;;;;;;6.40;3.17;;;;;;;23.68;89.24;96510.66;5036712;28;20198;-72
2022/08/02 08:12:30;;;;;;;5.82;3.45;;;;;;;23.62;87.62;96518.94;5035179;28;20225;-74
2022/08/02 08:14:58;;;;;;;6.30;3.67;;;;;;;23.90;86.97;96518.75;5036798;28;20226;-75
2022/08/02 08:17:25;;;;;;;7.03;3.25;;;;;;;23.57;87.03;96519.66;5036962;28;20217;-73
2022/08/02 08:19:51;;;;;;;7.03;3.35;;;;;;;23.64;86.67;96520.31;5036069;28;20890;-72
2022/08/02 08:22:17;;;;;;;6.25;3.05;;;;;;;23.64;90.97;96509.53;5034898;28;20221;-73
2022/08/02 08:24:44;;;;;;;4.25;2.60;;;;;;;23.53;88.60;96507.78;5037006;28;20197;-73
2022/08/02 08:27:13;;;;;;;3.33;2.53;;;;;;;23.44;85.44;96514.66;5035356;28;20228;-73
2022/08/02 08:29:40;;;;;;;5.25;2.55;;;;;;;23.52;84.12;96519.63;5035589;28;20758;-74
2022/08/02 08:32:08;;;;;;;3.58;1.83;;;;;;;23.68;85.29;96515.25;5036174;28;20213;-74
2022/08/02 08:34:34;;;;;;;7.13;2.78;;;;;;;23.34;89.38;96522.63;5032135;28;20247;-75
2022/08/02 08:37:02;;;;;;;5.57;3.00;;;;;;;23.68;84.93;96520.63;5034975;28;20201;-75
2022/08/02 08:39:28;;;;;;;4.93;2.55;;;;;;;23.69;85.57;96523.09;5034496;28;20665;-72
2022/08/02 08:41:55;;;;;;;5.20;2.20;;;;;;;23.84;84.38;96520.59;5035290;28;20232;-72
2022/08/02 08:44:21;;;;;;;6.45;2.30;;;;;;;23.82;88.94;96517.31;5033902;28;20242;-75
2022/08/02 08:46:49;;;;;;;3.28;2.20;;;;;;;24.04;81.04;96524.31;5035793;28;20208;-73
2022/08/02 08:49:23;;;;;;;3.35;1.90;;;;;;;24.39;79.69;96523.84;5035361;28;20201;-74
2022/08/02 08:51:53;;;;;;;6.43;1.73;;;;;;;24.51;78.99;96517.25;5038439;28;20228;-74
2022/08/02 08:54:24;;;;;;;4.40;2.63;;;;;;;24.74;82.20;96528.47;5041622;28;20201;-75
2022/08/02 08:56:52;;;;;;;3.63;2.17;;;;;;;24.68;82.92;96534.09;5042207;28;20208;-72
2022/08/02 08:59:18;;;;;;;3.10;2.13;;;;;;;24.76;78.93;96534.44;5042338;28;20304;-72
2022/08/02 09:01:46;;;;;;;3.55;2.30;;;;;;;24.82;80.16;96529.88;5042970;28;20225;-75
2022/08/02 09:04:12;;;;;;;3.75;2.00;;;;;;;24.54;81.85;96529.38;5042692;28;21132;-77
2022/08/02 09:06:41;;;;;;;3.83;2.20;;;;;;;24.87;83.07;96528.06;5042787;28;20201;-73
2022/08/02 09:09:08;;;;;;;3.85;1.95;;;;;;;25.17;79.01;96532.88;5043479;28;20201;-78
2022/08/02 09:11:34;;;;;;;3.33;2.00;;;;;;;25.29;79.81;96531.59;5042784;28;20208;-74
2022/08/02 09:14:02;;;;;;;4.85;2.20;;;;;;;25.47;78.50;96536.53;5042337;28;20232;-74
2022/08/02 09:16:34;;;;;;;4.65;1.92;;;;;;;25.04;77.19;96533.28;5042741;28;20665;-75
2022/08/02 09:19:01;;;;;;;3.55;2.30;;;;;;;25.34;74.40;96545.09;5043091;28;20209;-75
2022/08/02 09:21:37;;;;;;;6.88;2.00;;;;;;;25.21;73.33;96540.97;5042798;28;20700;-73
2022/08/02 09:24:16;;;;;;;3.42;2.15;;;;;;;25.50;74.24;96544.13;5042581;28;20231;-73
2022/08/02 09:26:43;;;;;;;3.25;1.90;;;;;;;25.44;71.00;96539.78;5043188;28;20236;-74
2022/08/02 09:29:10;;;;;;;3.20;2.38;;;;;;;25.37;74.55;96544.59;5042485;28;20316;-76
2022/08/02 09:31:37;;;;;;;3.30;1.98;;;;;;;25.30;73.02;96546.72;5042819;28;20236;-74
2022/08/02 09:34:03;;;;;;;3.58;2.00;;;;;;;24.85;77.29;96545.56;5039377;28;20591;-73
2022/08/02 09:36:39;;;;;;;6.25;1.90;;;;;;;25.21;73.50;96545.56;5042821;28;20219;-73
2022/08/02 09:39:09;;;;;;;4.35;2.50;;;;;;;25.32;74.04;96547.28;5043047;28;20209;-72
2022/08/02 09:41:39;;;;;;;5.97;2.30;;;;;;;25.73;74.24;96538.34;5042985;28;20306;-72
2022/08/02 09:44:06;;;;;;;4.57;1.98;;;;;;;25.87;74.29;96540.28;5042030;28;20225;-72
2022/08/02 09:46:36;;;;;;;4.70;2.38;;;;;;;26.35;71.29;96526.38;5042979;28;20208;-72
2022/08/02 09:49:05;;;;;;;2.88;1.90;;;;;;;26.56;73.77;96540.47;5042918;28;20984;-73
2022/08/02 09:51:34;;;;;;;3.08;1.85;;;;;;;26.67;73.19;96536.69;5042902;28;20204;-74
2022/08/02 09:54:03;;;;;;;2.30;1.52;;;;;;;26.67;69.31;96535.91;5041972;28;20217;-72
2022/08/02 09:56:40;;;;;;;2.85;1.60;;;;;;;26.48;69.16;96529.38;5042280;28;20996;-75
2022/08/02 09:59:07;;;;;;;2.25;1.58;;;;;;;26.01;67.79;96526.00;5042952;28;20200;-73
2022/08/02 10:01:34;;;;;;;2.53;1.60;;;;;;;26.08;67.98;96517.63;5042077;28;20696;-74
2022/08/02 10:04:03;;;;;;;2.90;1.75;;;;;;;26.40;65.22;96521.81;5039381;28;20217;-72
2022/08/02 10:06:30;;;;;;;2.95;2.05;;;;;;;26.22;68.19;96516.88;5039627;28;20213;-73
2022/08/02 10:08:57;;;;;;;2.10;1.77;;;;;;;25.72;70.48;96515.09;5039313;28;20587;-72
2022/08/02 10:11:26;;;;;;;3.67;1.67;;;;;;;25.48;70.47;96512.03;5039635;28;20205;-73
2022/08/02 10:13:55;;;;;;;4.72;1.75;;;;;;;25.45;71.12;96519.81;5038597;28;20225;-74
2022/08/02 10:16:23;;;;;;;2.35;1.70;;;;;;;25.16;71.98;96517.75;5038521;28;20546;-73
2022/08/02 10:18:50;;;;;;;3.08;1.55;;;;;;;25.06;71.74;96513.09;5039519;28;20259;-73
2022/08/02 10:21:28;;;;;;;4.93;2.10;;;;;;;25.24;72.21;96513.50;5039885;28;20296;-72
2022/08/02 10:24:00;;;;;;;2.70;1.63;;;;;;;25.16;71.93;96499.69;5038330;28;20224;-73
2022/08/02 10:26:27;;;;;;;2.67;1.83;;;;;;;25.44;72.35;96499.28;5039289;28;20208;-73
2022/08/02 10:28:55;;;;;;;4.78;1.83;;;;;;;25.66;70.53;96502.63;5039314;28;20579;-73
2022/08/02 10:31:25;;;;;;;5.45;1.83;;;;;;;25.87;68.38;96492.47;5038967;28;20205;-73
2022/08/02 10:33:53;;;;;;;2.78;1.83;;;;;;;26.31;68.29;96504.47;5036013;28;20256;-75
2022/08/02 10:36:22;;;;;;;1.67;1.50;;;;;;;26.73;67.53;96491.53;5038439;28;20197;-75
2022/08/02 10:38:49;;;;;;;3.33;1.60;;;;;;;26.68;65.48;96489.66;5038998;28;20212;-72
2022/08/02 10:41:43;;;;;;;2.42;1.50;;;;;;;26.91;70.17;96490.97;5038575;28;20216;-73
2022/08/02 10:44:20;;;;;;;2.25;1.60;;;;;;;27.16;63.96;96491.78;5038134;28;20205;-76
2022/08/02 10:46:46;;;;;;;3.97;1.55;;;;;;;27.26;59.74;96486.34;5038567;28;20204;-74
2022/08/02 10:49:15;;;;;;;3.08;1.38;;;;;;;27.76;63.55;96476.16;5038618;28;20198;-76
2022/08/02 10:52:15;;;;;;;2.75;1.40;;;;;;;27.85;62.69;96463.66;5038960;28;20208;-75
2022/08/02 10:54:43;;;;;;;1.58;1.30;;;;;;;27.88;65.25;96468.53;5037700;28;20201;-74
2022/08/02 10:57:18;;;;;;;4.65;1.73;;;;;;;27.84;60.47;96464.75;5038180;28;20209;-75
2022/08/02 10:59:46;;;;;;;2.80;1.60;;;;;;;27.44;61.44;96472.22;5038465;28;20215;-75
2022/08/02 11:02:13;;;;;;;2.20;1.45;;;;;;;27.52;60.61;96469.75;5038060;28;20315;-74
2022/08/02 11:05:02;;;;;;;3.47;1.50;;;;;;;27.70;62.61;96471.88;5038126;28;20209;-74
2022/08/02 11:07:35;;;;;;;2.05;1.55;;;;;;;27.98;63.43;96463.06;5038415;28;20205;-77
2022/08/02 11:10:37;;;;;;;3.30;1.60;;;;;;;28.08;60.56;96462.97;5038517;28;20580;-74
2022/08/02 11:13:07;;;;;;;1.67;1.38;;;;;;;28.51;59.87;96458.38;5035540;28;20225;-76
2022/08/02 11:16:00;;;;;;;2.70;1.30;;;;;;;28.70;57.69;96461.19;5037638;28;20867;-76
2022/08/02 11:19:05;;;;;;;1.42;1.10;;;;;;;29.06;56.05;96463.31;5038366;28;20236;-74
2022/08/02 11:21:33;;;;;;;2.20;1.55;;;;;;;28.81;56.75;96455.41;5034917;28;20244;-76
2022/08/02 11:24:26;;;;;;;1.95;1.48;;;;;;;28.25;57.50;96460.75;5036991;28;20229;-76
2022/08/02 11:26:53;;;;;;;2.25;1.40;;;;;;;28.55;58.20;96454.00;5023959;28;20666;-75
2022/08/02 11:29:20;;;;;;;2.42;1.48;;;;;;;28.51;56.90;96449.41;5037717;28;20211;-75
2022/08/02 11:31:48;;;;;;;3.78;1.45;;;;;;;28.46;59.18;96452.16;5037630;28;20216;-74
2022/08/02 11:34:17;;;;;;;2.33;1.35;;;;;;;28.30;57.79;96445.25;5035417;28;20202;-75
2022/08/02 11:36:45;;;;;;;3.20;1.20;;;;;;;28.57;58.28;96443.66;5038235;28;20201;-74
2022/08/02 11:39:13;;;;;;;2.72;1.52;;;;;;;28.94;58.48;96447.41;5037566;28;20208;-75